sensor_id;sensor_type;location;lat;lon;timestamp;temperature;humidity
4406;DHT22;2216;53.806;11.598;2023-04-15T00:00:38;8.20;72.60
4406;DHT22;2216;53.806;11.598;2023-04-15T00:03:04;8.10;72.20
4406;DHT22;2216;53.806;11.598;2023-04-15T00:05:31;8.20;72.20
4406;DHT22;2216;53.806;11.598;2023-04-15T00:07:57;8.10;72.10
4406;DHT22;2216;53.806;11.598;2023-04-15T00:10:24;8.20;72.10
4406;DHT22;2216;53.806;11.598;2023-04-15T00:12:50;8.20;72.10
4406;DHT22;2216;53.806;11.598;2023-04-15T00:15:16;8.10;72.30
4406;DHT22;2216;53.806;11.598;2023-04-15T00:17:42;8.20;72.20
4406;DHT22;2216;53.806;11.598;2023-04-15T00:20:08;8.20;72.20
4406;DHT22;2216;53.806;11.598;2023-04-15T00:22:34;8.10;72.10
4406;DHT22;2216;53.806;11.598;2023-04-15T00:25:00;8.20;72.30
4406;DHT22;2216;53.806;11.598;2023-04-15T00:27:26;8.20;72.10
4406;DHT22;2216;53.806;11.598;2023-04-15T00:29:52;8.20;72.20
4406;DHT22;2216;53.806;11.598;2023-04-15T00:32:18;8.20;72.30
4406;DHT22;2216;53.806;11.598;2023-04-15T00:34:44;8.20;72.40
4406;DHT22;2216;53.806;11.598;2023-04-15T00:37:10;8.20;72.40
4406;DHT22;2216;53.806;11.598;2023-04-15T00:39:37;8.20;72.20
4406;DHT22;2216;53.806;11.598;2023-04-15T00:42:05;8.20;72.50
4406;DHT22;2216;53.806;11.598;2023-04-15T00:44:31;8.20;72.80
4406;DHT22;2216;53.806;11.598;2023-04-15T00:46:59;8.20;72.30
4406;DHT22;2216;53.806;11.598;2023-04-15T00:49:25;8.20;72.80
4406;DHT22;2216;53.806;11.598;2023-04-15T00:51:51;8.20;72.60
4406;DHT22;2216;53.806;11.598;2023-04-15T00:54:17;8.20;73.20
4406;DHT22;2216;53.806;11.598;2023-04-15T00:56:42;8.20;72.70
4406;DHT22;2216;53.806;11.598;2023-04-15T00:59:08;8.20;72.60
4406;DHT22;2216;53.806;11.598;2023-04-15T01:01:35;8.20;72.60
4406;DHT22;2216;53.806;11.598;2023-04-15T01:04:02;8.20;73.20
4406;DHT22;2216;53.806;11.598;2023-04-15T01:06:27;8.20;73.20
4406;DHT22;2216;53.806;11.598;2023-04-15T01:08:54;8.40;73.80
4406;DHT22;2216;53.806;11.598;2023-04-15T01:11:20;8.20;73.10
4406;DHT22;2216;53.806;11.598;2023-04-15T01:13:48;8.10;72.90
4406;DHT22;2216;53.806;11.598;2023-04-15T01:16:15;8.10;73.40
4406;DHT22;2216;53.806;11.598;2023-04-15T01:18:41;8.10;72.70
4406;DHT22;2216;53.806;11.598;2023-04-15T01:21:07;8.10;72.70
4406;DHT22;2216;53.806;11.598;2023-04-15T01:23:36;8.10;72.50
4406;DHT22;2216;53.806;11.598;2023-04-15T01:26:06;8.10;72.80
4406;DHT22;2216;53.806;11.598;2023-04-15T01:28:35;8.10;72.50
4406;DHT22;2216;53.806;11.598;2023-04-15T01:31:20;8.10;73.10
4406;DHT22;2216;53.806;11.598;2023-04-15T01:33:46;8.10;72.40
4406;DHT22;2216;53.806;11.598;2023-04-15T01:36:11;8.00;72.60
4406;DHT22;2216;53.806;11.598;2023-04-15T01:38:38;8.00;72.70
4406;DHT22;2216;53.806;11.598;2023-04-15T01:41:03;8.00;72.90
4406;DHT22;2216;53.806;11.598;2023-04-15T01:43:31;7.90;72.70
4406;DHT22;2216;53.806;11.598;2023-04-15T01:45:57;7.90;72.80
4406;DHT22;2216;53.806;11.598;2023-04-15T01:48:23;7.90;72.70
4406;DHT22;2216;53.806;11.598;2023-04-15T01:50:48;7.90;72.50
4406;DHT22;2216;53.806;11.598;2023-04-15T01:53:14;7.90;72.60
4406;DHT22;2216;53.806;11.598;2023-04-15T01:55:41;7.90;72.80
4406;DHT22;2216;53.806;11.598;2023-04-15T01:58:06;7.80;72.80
4406;DHT22;2216;53.806;11.598;2023-04-15T02:00:32;7.80;73.00
4406;DHT22;2216;53.806;11.598;2023-04-15T02:02:58;7.80;73.20
4406;DHT22;2216;53.806;11.598;2023-04-15T02:05:24;7.80;73.10
4406;DHT22;2216;53.806;11.598;2023-04-15T02:07:50;7.80;73.00
4406;DHT22;2216;53.806;11.598;2023-04-15T02:10:16;7.70;73.60
4406;DHT22;2216;53.806;11.598;2023-04-15T02:12:41;7.70;73.30
4406;DHT22;2216;53.806;11.598;2023-04-15T02:15:08;7.70;73.20
4406;DHT22;2216;53.806;11.598;2023-04-15T02:17:37;7.70;72.80
4406;DHT22;2216;53.806;11.598;2023-04-15T02:20:03;7.70;73.10
4406;DHT22;2216;53.806;11.598;2023-04-15T02:22:33;7.70;73.30
4406;DHT22;2216;53.806;11.598;2023-04-15T02:24:59;7.60;73.50
4406;DHT22;2216;53.806;11.598;2023-04-15T02:27:25;7.60;73.30
4406;DHT22;2216;53.806;11.598;2023-04-15T02:29:50;7.60;73.40
4406;DHT22;2216;53.806;11.598;2023-04-15T02:32:16;7.60;74.40
4406;DHT22;2216;53.806;11.598;2023-04-15T02:34:42;7.60;74.90
4406;DHT22;2216;53.806;11.598;2023-04-15T02:37:10;7.50;74.20
4406;DHT22;2216;53.806;11.598;2023-04-15T02:39:36;7.50;73.60
4406;DHT22;2216;53.806;11.598;2023-04-15T02:42:02;7.50;73.40
4406;DHT22;2216;53.806;11.598;2023-04-15T02:44:29;7.50;73.60
4406;DHT22;2216;53.806;11.598;2023-04-15T02:46:55;7.60;73.50
4406;DHT22;2216;53.806;11.598;2023-04-15T02:49:22;7.50;73.80
4406;DHT22;2216;53.806;11.598;2023-04-15T02:51:48;7.40;73.50
4406;DHT22;2216;53.806;11.598;2023-04-15T02:54:19;7.50;73.60
4406;DHT22;2216;53.806;11.598;2023-04-15T02:56:47;7.50;73.50
4406;DHT22;2216;53.806;11.598;2023-04-15T02:59:13;7.50;74.30
4406;DHT22;2216;53.806;11.598;2023-04-15T03:01:38;7.40;73.60
4406;DHT22;2216;53.806;11.598;2023-04-15T03:04:04;7.50;73.40
4406;DHT22;2216;53.806;11.598;2023-04-15T03:06:31;7.50;73.30
4406;DHT22;2216;53.806;11.598;2023-04-15T03:08:57;7.50;73.50
4406;DHT22;2216;53.806;11.598;2023-04-15T03:11:24;7.50;73.80
4406;DHT22;2216;53.806;11.598;2023-04-15T03:13:51;7.50;73.50
4406;DHT22;2216;53.806;11.598;2023-04-15T03:16:17;7.50;74.00
4406;DHT22;2216;53.806;11.598;2023-04-15T03:18:42;7.50;73.30
4406;DHT22;2216;53.806;11.598;2023-04-15T03:21:08;7.50;73.40
4406;DHT22;2216;53.806;11.598;2023-04-15T03:23:34;7.50;73.50
4406;DHT22;2216;53.806;11.598;2023-04-15T03:26:03;7.50;73.30
4406;DHT22;2216;53.806;11.598;2023-04-15T03:28:30;7.50;73.30
4406;DHT22;2216;53.806;11.598;2023-04-15T03:30:57;7.50;73.30
4406;DHT22;2216;53.806;11.598;2023-04-15T03:33:23;7.50;73.20
4406;DHT22;2216;53.806;11.598;2023-04-15T03:35:50;7.50;73.50
4406;DHT22;2216;53.806;11.598;2023-04-15T03:38:16;7.50;73.40
4406;DHT22;2216;53.806;11.598;2023-04-15T03:40:43;7.50;73.40
4406;DHT22;2216;53.806;11.598;2023-04-15T03:43:09;7.50;73.40
4406;DHT22;2216;53.806;11.598;2023-04-15T03:45:35;7.50;73.20
4406;DHT22;2216;53.806;11.598;2023-04-15T03:48:01;7.50;73.20
4406;DHT22;2216;53.806;11.598;2023-04-15T03:50:26;7.60;73.30
4406;DHT22;2216;53.806;11.598;2023-04-15T03:52:52;7.60;73.20
4406;DHT22;2216;53.806;11.598;2023-04-15T03:55:18;7.50;73.20
4406;DHT22;2216;53.806;11.598;2023-04-15T03:57:44;7.60;73.20
4406;DHT22;2216;53.806;11.598;2023-04-15T04:00:10;7.60;73.10
4406;DHT22;2216;53.806;11.598;2023-04-15T04:02:36;7.60;73.10
4406;DHT22;2216;53.806;11.598;2023-04-15T04:05:02;7.60;73.10
4406;DHT22;2216;53.806;11.598;2023-04-15T04:07:28;7.60;73.40
4406;DHT22;2216;53.806;11.598;2023-04-15T04:09:56;7.60;73.40
4406;DHT22;2216;53.806;11.598;2023-04-15T04:12:22;7.60;73.40
4406;DHT22;2216;53.806;11.598;2023-04-15T04:14:48;7.60;73.40
4406;DHT22;2216;53.806;11.598;2023-04-15T04:17:13;7.60;73.50
4406;DHT22;2216;53.806;11.598;2023-04-15T04:19:39;7.60;73.30
4406;DHT22;2216;53.806;11.598;2023-04-15T04:22:05;7.50;73.20
4406;DHT22;2216;53.806;11.598;2023-04-15T04:24:31;7.60;73.30
4406;DHT22;2216;53.806;11.598;2023-04-15T04:26:56;7.60;73.40
4406;DHT22;2216;53.806;11.598;2023-04-15T04:29:22;7.60;73.40
4406;DHT22;2216;53.806;11.598;2023-04-15T04:31:48;7.60;73.30
4406;DHT22;2216;53.806;11.598;2023-04-15T04:34:14;7.60;73.30
4406;DHT22;2216;53.806;11.598;2023-04-15T04:36:40;7.60;73.40
4406;DHT22;2216;53.806;11.598;2023-04-15T04:39:06;7.60;73.50
4406;DHT22;2216;53.806;11.598;2023-04-15T04:41:32;7.50;74.00
4406;DHT22;2216;53.806;11.598;2023-04-15T04:43:58;7.60;73.40
4406;DHT22;2216;53.806;11.598;2023-04-15T04:46:23;7.50;73.30
4406;DHT22;2216;53.806;11.598;2023-04-15T04:48:49;7.60;74.10
4406;DHT22;2216;53.806;11.598;2023-04-15T04:51:15;7.60;73.80
4406;DHT22;2216;53.806;11.598;2023-04-15T04:53:41;7.60;74.30
4406;DHT22;2216;53.806;11.598;2023-04-15T04:56:07;7.60;73.60
4406;DHT22;2216;53.806;11.598;2023-04-15T04:58:33;7.60;73.60
4406;DHT22;2216;53.806;11.598;2023-04-15T05:00:59;7.60;73.90
4406;DHT22;2216;53.806;11.598;2023-04-15T05:03:25;7.60;74.00
4406;DHT22;2216;53.806;11.598;2023-04-15T05:05:50;7.60;74.10
4406;DHT22;2216;53.806;11.598;2023-04-15T05:08:16;7.60;73.70
4406;DHT22;2216;53.806;11.598;2023-04-15T05:10:42;7.60;74.10
4406;DHT22;2216;53.806;11.598;2023-04-15T05:13:07;7.60;74.10
4406;DHT22;2216;53.806;11.598;2023-04-15T05:15:33;7.60;74.60
4406;DHT22;2216;53.806;11.598;2023-04-15T05:18:01;7.60;74.00
4406;DHT22;2216;53.806;11.598;2023-04-15T05:20:27;7.60;73.80
4406;DHT22;2216;53.806;11.598;2023-04-15T05:22:53;7.60;74.20
4406;DHT22;2216;53.806;11.598;2023-04-15T05:25:18;7.60;74.40
4406;DHT22;2216;53.806;11.598;2023-04-15T05:27:44;7.70;75.00
4406;DHT22;2216;53.806;11.598;2023-04-15T05:30:10;7.70;74.80
4406;DHT22;2216;53.806;11.598;2023-04-15T05:32:36;7.60;75.10
4406;DHT22;2216;53.806;11.598;2023-04-15T05:35:02;7.70;74.80
4406;DHT22;2216;53.806;11.598;2023-04-15T05:37:27;7.70;74.60
4406;DHT22;2216;53.806;11.598;2023-04-15T05:39:53;7.70;74.40
4406;DHT22;2216;53.806;11.598;2023-04-15T05:42:18;7.70;74.70
4406;DHT22;2216;53.806;11.598;2023-04-15T05:44:44;7.70;74.50
4406;DHT22;2216;53.806;11.598;2023-04-15T05:47:10;7.80;74.70
4406;DHT22;2216;53.806;11.598;2023-04-15T05:49:36;7.80;74.60
4406;DHT22;2216;53.806;11.598;2023-04-15T05:52:02;7.80;74.70
4406;DHT22;2216;53.806;11.598;2023-04-15T05:54:27;7.90;75.20
4406;DHT22;2216;53.806;11.598;2023-04-15T05:56:53;7.90;74.80
4406;DHT22;2216;53.806;11.598;2023-04-15T05:59:20;7.90;75.30
4406;DHT22;2216;53.806;11.598;2023-04-15T06:01:46;8.00;75.00
4406;DHT22;2216;53.806;11.598;2023-04-15T06:04:12;8.00;74.80
4406;DHT22;2216;53.806;11.598;2023-04-15T06:06:37;8.00;75.40
4406;DHT22;2216;53.806;11.598;2023-04-15T06:09:03;8.10;75.50
4406;DHT22;2216;53.806;11.598;2023-04-15T06:11:29;8.10;75.50
4406;DHT22;2216;53.806;11.598;2023-04-15T06:13:55;8.10;74.90
4406;DHT22;2216;53.806;11.598;2023-04-15T06:16:21;8.10;75.20
4406;DHT22;2216;53.806;11.598;2023-04-15T06:18:47;8.20;75.20
4406;DHT22;2216;53.806;11.598;2023-04-15T06:21:13;8.20;75.00
4406;DHT22;2216;53.806;11.598;2023-04-15T06:23:40;8.20;75.00
4406;DHT22;2216;53.806;11.598;2023-04-15T06:26:06;8.30;75.00
4406;DHT22;2216;53.806;11.598;2023-04-15T06:28:32;8.30;74.90
4406;DHT22;2216;53.806;11.598;2023-04-15T06:30:57;8.40;75.40
4406;DHT22;2216;53.806;11.598;2023-04-15T06:33:23;8.40;74.90
4406;DHT22;2216;53.806;11.598;2023-04-15T06:35:49;8.40;74.80
4406;DHT22;2216;53.806;11.598;2023-04-15T06:38:15;8.50;74.90
4406;DHT22;2216;53.806;11.598;2023-04-15T06:40:40;8.60;74.90
4406;DHT22;2216;53.806;11.598;2023-04-15T06:43:06;8.60;75.10
4406;DHT22;2216;53.806;11.598;2023-04-15T06:45:32;8.70;76.00
4406;DHT22;2216;53.806;11.598;2023-04-15T06:47:58;8.70;75.10
4406;DHT22;2216;53.806;11.598;2023-04-15T06:50:23;8.80;75.50
4406;DHT22;2216;53.806;11.598;2023-04-15T06:52:49;8.90;75.60
4406;DHT22;2216;53.806;11.598;2023-04-15T06:55:15;8.90;75.30
4406;DHT22;2216;53.806;11.598;2023-04-15T06:57:40;9.00;75.40
4406;DHT22;2216;53.806;11.598;2023-04-15T07:00:06;9.10;76.30
4406;DHT22;2216;53.806;11.598;2023-04-15T07:02:33;9.20;75.80
4406;DHT22;2216;53.806;11.598;2023-04-15T07:04:58;9.30;75.60
4406;DHT22;2216;53.806;11.598;2023-04-15T07:07:24;9.40;76.10
4406;DHT22;2216;53.806;11.598;2023-04-15T07:09:50;9.50;76.00
4406;DHT22;2216;53.806;11.598;2023-04-15T07:12:18;9.50;75.60
4406;DHT22;2216;53.806;11.598;2023-04-15T07:14:43;9.60;75.70
4406;DHT22;2216;53.806;11.598;2023-04-15T07:17:09;9.70;75.50
4406;DHT22;2216;53.806;11.598;2023-04-15T07:19:36;9.80;75.50
4406;DHT22;2216;53.806;11.598;2023-04-15T07:22:02;9.80;75.60
4406;DHT22;2216;53.806;11.598;2023-04-15T07:24:28;9.90;75.70
4406;DHT22;2216;53.806;11.598;2023-04-15T07:26:54;10.00;75.90
4406;DHT22;2216;53.806;11.598;2023-04-15T07:29:23;10.20;76.10
4406;DHT22;2216;53.806;11.598;2023-04-15T07:31:49;10.30;76.10
4406;DHT22;2216;53.806;11.598;2023-04-15T07:34:15;10.50;76.60
4406;DHT22;2216;53.806;11.598;2023-04-15T07:36:41;10.60;76.80
4406;DHT22;2216;53.806;11.598;2023-04-15T07:39:07;10.70;76.20
4406;DHT22;2216;53.806;11.598;2023-04-15T07:41:33;10.80;76.30
4406;DHT22;2216;53.806;11.598;2023-04-15T07:43:59;10.90;76.40
4406;DHT22;2216;53.806;11.598;2023-04-15T07:46:25;11.10;76.70
4406;DHT22;2216;53.806;11.598;2023-04-15T07:48:52;11.20;76.30
4406;DHT22;2216;53.806;11.598;2023-04-15T07:51:19;11.40;76.30
4406;DHT22;2216;53.806;11.598;2023-04-15T07:53:46;11.50;76.70
4406;DHT22;2216;53.806;11.598;2023-04-15T07:56:12;11.70;76.50
4406;DHT22;2216;53.806;11.598;2023-04-15T07:58:38;11.80;76.30
4406;DHT22;2216;53.806;11.598;2023-04-15T08:01:04;11.90;76.50
4406;DHT22;2216;53.806;11.598;2023-04-15T08:03:30;12.00;76.10
4406;DHT22;2216;53.806;11.598;2023-04-15T08:05:57;12.10;75.70
4406;DHT22;2216;53.806;11.598;2023-04-15T08:08:24;12.20;75.50
4406;DHT22;2216;53.806;11.598;2023-04-15T08:10:50;12.20;75.60
4406;DHT22;2216;53.806;11.598;2023-04-15T08:13:16;12.30;75.60
4406;DHT22;2216;53.806;11.598;2023-04-15T08:15:42;12.40;75.30
4406;DHT22;2216;53.806;11.598;2023-04-15T08:18:08;12.40;75.20
4406;DHT22;2216;53.806;11.598;2023-04-15T08:20:34;12.50;75.10
4406;DHT22;2216;53.806;11.598;2023-04-15T08:22:59;12.60;75.20
4406;DHT22;2216;53.806;11.598;2023-04-15T08:25:25;12.60;75.40
4406;DHT22;2216;53.806;11.598;2023-04-15T08:27:54;12.70;75.10
4406;DHT22;2216;53.806;11.598;2023-04-15T08:30:19;12.80;75.80
4406;DHT22;2216;53.806;11.598;2023-04-15T08:32:45;12.90;75.90
4406;DHT22;2216;53.806;11.598;2023-04-15T08:35:11;13.00;76.00
4406;DHT22;2216;53.806;11.598;2023-04-15T08:37:38;13.20;76.00
4406;DHT22;2216;53.806;11.598;2023-04-15T08:40:04;13.30;75.90
4406;DHT22;2216;53.806;11.598;2023-04-15T08:42:31;13.40;75.70
4406;DHT22;2216;53.806;11.598;2023-04-15T08:45:03;13.50;75.20
4406;DHT22;2216;53.806;11.598;2023-04-15T08:47:30;13.40;75.00
4406;DHT22;2216;53.806;11.598;2023-04-15T08:49:58;13.70;74.90
4406;DHT22;2216;53.806;11.598;2023-04-15T08:52:29;13.70;74.60
4406;DHT22;2216;53.806;11.598;2023-04-15T08:54:56;13.80;74.70
4406;DHT22;2216;53.806;11.598;2023-04-15T08:57:26;13.90;74.80
4406;DHT22;2216;53.806;11.598;2023-04-15T08:59:54;14.00;74.90
4406;DHT22;2216;53.806;11.598;2023-04-15T09:02:22;14.10;75.00
4406;DHT22;2216;53.806;11.598;2023-04-15T09:04:50;14.20;74.70
4406;DHT22;2216;53.806;11.598;2023-04-15T09:07:16;14.20;74.60
4406;DHT22;2216;53.806;11.598;2023-04-15T09:09:42;14.30;74.20
4406;DHT22;2216;53.806;11.598;2023-04-15T09:12:08;14.30;73.60
4406;DHT22;2216;53.806;11.598;2023-04-15T09:14:34;14.30;73.40
4406;DHT22;2216;53.806;11.598;2023-04-15T09:17:02;14.30;73.20
4406;DHT22;2216;53.806;11.598;2023-04-15T09:19:29;14.20;72.80
4406;DHT22;2216;53.806;11.598;2023-04-15T09:21:56;14.20;72.80
4406;DHT22;2216;53.806;11.598;2023-04-15T09:24:24;14.10;72.60
4406;DHT22;2216;53.806;11.598;2023-04-15T09:26:53;14.00;72.60
4406;DHT22;2216;53.806;11.598;2023-04-15T09:29:25;14.00;72.50
4406;DHT22;2216;53.806;11.598;2023-04-15T09:31:51;14.00;73.30
4406;DHT22;2216;53.806;11.598;2023-04-15T09:34:17;14.00;73.80
4406;DHT22;2216;53.806;11.598;2023-04-15T09:39:12;14.10;73.70
4406;DHT22;2216;53.806;11.598;2023-04-15T09:41:38;14.20;73.40
4406;DHT22;2216;53.806;11.598;2023-04-15T09:44:05;14.20;73.20
4406;DHT22;2216;53.806;11.598;2023-04-15T09:46:44;14.20;73.50
4406;DHT22;2216;53.806;11.598;2023-04-15T09:49:11;14.30;73.10
4406;DHT22;2216;53.806;11.598;2023-04-15T09:51:37;14.40;73.10
4406;DHT22;2216;53.806;11.598;2023-04-15T09:54:03;14.40;72.30
4406;DHT22;2216;53.806;11.598;2023-04-15T09:56:37;14.30;72.10
4406;DHT22;2216;53.806;11.598;2023-04-15T09:59:06;14.40;72.30
4406;DHT22;2216;53.806;11.598;2023-04-15T10:01:35;14.30;71.80
4406;DHT22;2216;53.806;11.598;2023-04-15T10:04:02;14.40;71.90
4406;DHT22;2216;53.806;11.598;2023-04-15T10:06:29;14.40;71.60
4406;DHT22;2216;53.806;11.598;2023-04-15T10:08:57;14.30;71.30
4406;DHT22;2216;53.806;11.598;2023-04-15T10:11:26;14.30;70.70
4406;DHT22;2216;53.806;11.598;2023-04-15T10:13:53;14.20;70.60
4406;DHT22;2216;53.806;11.598;2023-04-15T10:16:22;14.20;71.20
4406;DHT22;2216;53.806;11.598;2023-04-15T10:18:54;14.20;71.30
4406;DHT22;2216;53.806;11.598;2023-04-15T10:21:21;14.30;71.40
4406;DHT22;2216;53.806;11.598;2023-04-15T10:23:48;14.10;71.20
4406;DHT22;2216;53.806;11.598;2023-04-15T10:26:15;14.00;71.00
4406;DHT22;2216;53.806;11.598;2023-04-15T10:28:45;14.00;70.70
4406;DHT22;2216;53.806;11.598;2023-04-15T10:31:14;14.00;70.50
4406;DHT22;2216;53.806;11.598;2023-04-15T10:33:41;13.90;70.30
4406;DHT22;2216;53.806;11.598;2023-04-15T10:36:07;13.80;70.30
4406;DHT22;2216;53.806;11.598;2023-04-15T10:38:34;13.80;70.40
4406;DHT22;2216;53.806;11.598;2023-04-15T10:41:21;13.70;70.50
4406;DHT22;2216;53.806;11.598;2023-04-15T10:44:00;13.80;70.70
4406;DHT22;2216;53.806;11.598;2023-04-15T10:46:41;13.70;70.60
4406;DHT22;2216;53.806;11.598;2023-04-15T10:49:23;13.70;70.10
4406;DHT22;2216;53.806;11.598;2023-04-15T10:51:57;13.60;70.10
4406;DHT22;2216;53.806;11.598;2023-04-15T10:57:15;13.60;70.00
4406;DHT22;2216;53.806;11.598;2023-04-15T11:05:18;13.50;70.20
4406;DHT22;2216;53.806;11.598;2023-04-15T11:07:55;13.50;70.50
4406;DHT22;2216;53.806;11.598;2023-04-15T11:13:03;13.60;70.50
4406;DHT22;2216;53.806;11.598;2023-04-15T11:15:55;13.60;70.50
4406;DHT22;2216;53.806;11.598;2023-04-15T11:18:29;13.70;70.60
4406;DHT22;2216;53.806;11.598;2023-04-15T11:21:05;13.70;70.20
4406;DHT22;2216;53.806;11.598;2023-04-15T11:23:37;13.70;70.40
4406;DHT22;2216;53.806;11.598;2023-04-15T11:26:06;13.70;70.30
4406;DHT22;2216;53.806;11.598;2023-04-15T11:28:41;13.70;69.80
4406;DHT22;2216;53.806;11.598;2023-04-15T11:31:10;13.70;70.10
4406;DHT22;2216;53.806;11.598;2023-04-15T11:33:43;13.70;70.20
4406;DHT22;2216;53.806;11.598;2023-04-15T11:36:10;13.70;69.80
4406;DHT22;2216;53.806;11.598;2023-04-15T11:38:35;13.70;70.10
4406;DHT22;2216;53.806;11.598;2023-04-15T11:41:02;13.70;70.10
4406;DHT22;2216;53.806;11.598;2023-04-15T11:43:31;13.80;69.70
4406;DHT22;2216;53.806;11.598;2023-04-15T11:45:58;13.80;69.90
4406;DHT22;2216;53.806;11.598;2023-04-15T11:51:04;13.80;69.50
4406;DHT22;2216;53.806;11.598;2023-04-15T11:53:48;13.80;69.50
4406;DHT22;2216;53.806;11.598;2023-04-15T11:56:19;13.80;69.60
4406;DHT22;2216;53.806;11.598;2023-04-15T11:58:47;13.80;69.80
4406;DHT22;2216;53.806;11.598;2023-04-15T12:01:17;13.80;70.30
4406;DHT22;2216;53.806;11.598;2023-04-15T12:03:47;13.80;70.40
4406;DHT22;2216;53.806;11.598;2023-04-15T12:06:14;13.80;70.40
4406;DHT22;2216;53.806;11.598;2023-04-15T12:11:29;13.80;70.00
4406;DHT22;2216;53.806;11.598;2023-04-15T12:13:56;13.80;70.00
4406;DHT22;2216;53.806;11.598;2023-04-15T12:16:24;13.80;70.00
4406;DHT22;2216;53.806;11.598;2023-04-15T12:18:51;13.80;70.20
4406;DHT22;2216;53.806;11.598;2023-04-15T12:21:21;13.80;70.40
4406;DHT22;2216;53.806;11.598;2023-04-15T12:23:52;13.80;70.70
4406;DHT22;2216;53.806;11.598;2023-04-15T12:26:33;13.80;70.60
4406;DHT22;2216;53.806;11.598;2023-04-15T12:29:07;13.80;71.40
4406;DHT22;2216;53.806;11.598;2023-04-15T12:31:34;13.80;70.60
4406;DHT22;2216;53.806;11.598;2023-04-15T12:34:01;13.80;70.70
4406;DHT22;2216;53.806;11.598;2023-04-15T12:36:28;13.70;70.70
4406;DHT22;2216;53.806;11.598;2023-04-15T12:38:57;13.70;70.80
4406;DHT22;2216;53.806;11.598;2023-04-15T12:41:23;13.70;70.80
4406;DHT22;2216;53.806;11.598;2023-04-15T12:43:49;13.70;70.80
4406;DHT22;2216;53.806;11.598;2023-04-15T12:46:15;13.80;71.10
4406;DHT22;2216;53.806;11.598;2023-04-15T12:48:41;13.80;71.20
4406;DHT22;2216;53.806;11.598;2023-04-15T12:51:06;13.80;71.40
4406;DHT22;2216;53.806;11.598;2023-04-15T12:53:32;13.80;71.40
4406;DHT22;2216;53.806;11.598;2023-04-15T12:55:58;13.80;71.50
4406;DHT22;2216;53.806;11.598;2023-04-15T12:58:24;13.90;71.50
4406;DHT22;2216;53.806;11.598;2023-04-15T13:00:49;13.90;71.50
4406;DHT22;2216;53.806;11.598;2023-04-15T13:03:15;14.00;71.50
4406;DHT22;2216;53.806;11.598;2023-04-15T13:05:41;14.00;71.50
4406;DHT22;2216;53.806;11.598;2023-04-15T13:08:07;14.00;71.10
4406;DHT22;2216;53.806;11.598;2023-04-15T13:10:34;14.00;71.10
4406;DHT22;2216;53.806;11.598;2023-04-15T13:13:01;14.00;70.90
4406;DHT22;2216;53.806;11.598;2023-04-15T13:15:28;14.00;70.90
4406;DHT22;2216;53.806;11.598;2023-04-15T13:17:53;14.00;70.70
4406;DHT22;2216;53.806;11.598;2023-04-15T13:20:19;13.90;70.40
4406;DHT22;2216;53.806;11.598;2023-04-15T13:22:45;13.90;70.40
4406;DHT22;2216;53.806;11.598;2023-04-15T13:25:11;13.90;70.40
4406;DHT22;2216;53.806;11.598;2023-04-15T13:27:37;13.90;70.30
4406;DHT22;2216;53.806;11.598;2023-04-15T13:30:03;13.80;70.50
4406;DHT22;2216;53.806;11.598;2023-04-15T13:32:30;13.80;70.70
4406;DHT22;2216;53.806;11.598;2023-04-15T13:34:55;13.90;70.80
4406;DHT22;2216;53.806;11.598;2023-04-15T13:37:26;13.90;70.80
4406;DHT22;2216;53.806;11.598;2023-04-15T13:39:52;13.90;70.70
4406;DHT22;2216;53.806;11.598;2023-04-15T13:42:18;13.90;70.40
4406;DHT22;2216;53.806;11.598;2023-04-15T13:44:44;13.90;70.40
4406;DHT22;2216;53.806;11.598;2023-04-15T13:47:10;13.90;70.40
4406;DHT22;2216;53.806;11.598;2023-04-15T13:49:35;13.90;70.50
4406;DHT22;2216;53.806;11.598;2023-04-15T13:52:01;13.90;70.40
4406;DHT22;2216;53.806;11.598;2023-04-15T13:54:27;14.00;70.70
4406;DHT22;2216;53.806;11.598;2023-04-15T13:56:53;14.00;70.70
4406;DHT22;2216;53.806;11.598;2023-04-15T13:59:20;14.00;70.50
4406;DHT22;2216;53.806;11.598;2023-04-15T14:01:46;14.10;70.70
4406;DHT22;2216;53.806;11.598;2023-04-15T14:04:12;14.10;70.40
4406;DHT22;2216;53.806;11.598;2023-04-15T14:06:38;14.10;70.40
4406;DHT22;2216;53.806;11.598;2023-04-15T14:09:04;14.10;70.00
4406;DHT22;2216;53.806;11.598;2023-04-15T14:11:29;14.10;69.80
4406;DHT22;2216;53.806;11.598;2023-04-15T14:13:55;14.10;69.60
4406;DHT22;2216;53.806;11.598;2023-04-15T14:16:21;14.10;69.70
4406;DHT22;2216;53.806;11.598;2023-04-15T14:18:46;14.00;69.70
4406;DHT22;2216;53.806;11.598;2023-04-15T14:21:12;14.00;69.70
4406;DHT22;2216;53.806;11.598;2023-04-15T14:23:38;14.00;69.70
4406;DHT22;2216;53.806;11.598;2023-04-15T14:26:03;13.90;69.70
4406;DHT22;2216;53.806;11.598;2023-04-15T14:28:29;13.90;70.00
4406;DHT22;2216;53.806;11.598;2023-04-15T14:30:56;13.90;70.00
4406;DHT22;2216;53.806;11.598;2023-04-15T14:33:22;13.80;69.90
4406;DHT22;2216;53.806;11.598;2023-04-15T14:35:48;13.80;70.00
4406;DHT22;2216;53.806;11.598;2023-04-15T14:38:15;13.80;70.00
4406;DHT22;2216;53.806;11.598;2023-04-15T14:40:41;13.70;70.00
4406;DHT22;2216;53.806;11.598;2023-04-15T14:43:07;13.70;69.90
4406;DHT22;2216;53.806;11.598;2023-04-15T14:45:32;13.60;70.00
4406;DHT22;2216;53.806;11.598;2023-04-15T14:47:59;13.60;70.00
4406;DHT22;2216;53.806;11.598;2023-04-15T14:50:24;13.60;70.10
4406;DHT22;2216;53.806;11.598;2023-04-15T14:52:50;13.50;70.10
4406;DHT22;2216;53.806;11.598;2023-04-15T14:55:16;13.50;70.20
4406;DHT22;2216;53.806;11.598;2023-04-15T14:57:42;13.50;70.30
4406;DHT22;2216;53.806;11.598;2023-04-15T15:00:09;13.40;70.20
4406;DHT22;2216;53.806;11.598;2023-04-15T15:02:36;13.40;70.30
4406;DHT22;2216;53.806;11.598;2023-04-15T15:05:02;13.40;70.30
4406;DHT22;2216;53.806;11.598;2023-04-15T15:07:28;13.30;70.20
4406;DHT22;2216;53.806;11.598;2023-04-15T15:09:54;13.30;70.10
4406;DHT22;2216;53.806;11.598;2023-04-15T15:12:20;13.30;70.20
4406;DHT22;2216;53.806;11.598;2023-04-15T15:14:49;13.20;70.10
4406;DHT22;2216;53.806;11.598;2023-04-15T15:17:15;13.20;70.10
4406;DHT22;2216;53.806;11.598;2023-04-15T15:19:41;13.10;70.30
4406;DHT22;2216;53.806;11.598;2023-04-15T15:22:06;13.10;70.50
4406;DHT22;2216;53.806;11.598;2023-04-15T15:24:32;13.10;70.60
4406;DHT22;2216;53.806;11.598;2023-04-15T15:26:58;13.00;70.70
4406;DHT22;2216;53.806;11.598;2023-04-15T15:29:23;13.00;70.60
4406;DHT22;2216;53.806;11.598;2023-04-15T15:31:49;12.90;70.80
4406;DHT22;2216;53.806;11.598;2023-04-15T15:34:15;12.80;70.50
4406;DHT22;2216;53.806;11.598;2023-04-15T15:36:41;12.70;70.70
4406;DHT22;2216;53.806;11.598;2023-04-15T15:39:07;12.70;70.60
4406;DHT22;2216;53.806;11.598;2023-04-15T15:41:33;12.60;70.70
4406;DHT22;2216;53.806;11.598;2023-04-15T15:43:59;12.50;70.60
4406;DHT22;2216;53.806;11.598;2023-04-15T15:46:26;12.40;70.90
4406;DHT22;2216;53.806;11.598;2023-04-15T15:48:55;12.30;71.40
4406;DHT22;2216;53.806;11.598;2023-04-15T15:51:21;12.10;71.10
4406;DHT22;2216;53.806;11.598;2023-04-15T15:53:47;12.00;71.00
4406;DHT22;2216;53.806;11.598;2023-04-15T15:56:13;11.90;71.10
4406;DHT22;2216;53.806;11.598;2023-04-15T15:58:40;11.80;71.80
4406;DHT22;2216;53.806;11.598;2023-04-15T16:01:08;11.70;72.00
4406;DHT22;2216;53.806;11.598;2023-04-15T16:03:33;11.70;71.30
4406;DHT22;2216;53.806;11.598;2023-04-15T16:05:59;11.60;71.60
4406;DHT22;2216;53.806;11.598;2023-04-15T16:08:25;11.50;71.70